Aérodrome :
LOGIN :

S'inscrire | Disclaimer

   EN    FR    IT 

 










Légende :    VFR   VFR Marginal   IFR   IFR Intensif   IFR Très Intensif
Visi : 
Plafond : 
>= 8 km
>= 3000ft
5 à 8 km
1000 à 3000 ft
1500m à 5 km
500 à 1000 ft
800 à 1500m
200 à 500 ft
< 800m
< 200 ft
Symboles :   Orages  Brouillard  Fortes neiges  Fortes précipitations  Vent > 20 kt
SIGMETs :   Divers  Orages  Givrage  Turbulence  Onde Orograph.  Cendres Volcan.







- Altitude de l'aérodrome : 197 ft
- Code IATA : XOG
- Voir les cartes d'approche


LFMO - Orange

DERNIER METAR :
  • 170900Z AUTO VRB01KT 6000 BKN003 OVC086 16/16 Q1018 BECMG SCT050 BKN100

METARs EXPIRÉS :
  • 170830Z AUTO VRB01KT 4000 BR OVC002 15/15 Q1018 BECMG 9999 NSW SCT050 BKN100
  • 170800Z AUTO VRB02KT 3900 BR BKN002 OVC098 15/15 Q1017 BECMG 8000 NSW FEW070 BKN100
  • 170730Z AUTO 27003KT 3100 BR SCT001 OVC084 15/14 Q1017 BECMG 8000 NSW
  • 170700Z AUTO 28002KT 3200 BR FEW002 BKN080 OVC098 15/14 Q1017 BECMG 8000 NSW
  • 170630Z AUTO VRB02KT 2100 -RA BR FEW022 SCT033 BKN076 14/14 Q1017 BECMG 8000 NSW

TAF TAF LFMO
Valide du 17 à 09h jusqu'au 18 à 09h UTC


170800Z 1709/1809 33005KT 4000 BR BKN003 BKN100
BECMG 1709/1710 9999 NSW SCT050 BKN100
TEMPO 1802/1807 3000 BR
Pas de NOTAMs connus pour ce terrain.



MET'MAP, la Météo Aéronautique d'un coup d'oeil ! - Copyright ORBIFLY Décembre 2007 - Disclaimer

ORBIFLY MET'MAP TEAM :

Programmation & Développement : Alexandra Zaïnal
Conception & Développement : Baudouin d'Aumeries
Co-Programmation & Développement : Marc-Olivier Méhu
Soutien technique & logistique : Manuel Goepfert

Contact : metmap@orbifly.com




SOURCES & CREDITS :

   NOAA